createdAt,value
2022-09-06T00:00:05.101Z,13.15
2022-09-06T00:01:24.414Z,13.02
2022-09-06T00:02:32.093Z,12.93
2022-09-06T00:03:33.862Z,12.83
2022-09-06T00:04:35.898Z,12.75
2022-09-06T00:05:38.347Z,12.66
2022-09-06T00:06:40.041Z,12.59
2022-09-06T00:07:41.930Z,12.52
2022-09-06T00:08:45.510Z,12.46
2022-09-06T00:09:47.173Z,12.40
2022-09-06T00:11:00.375Z,12.63
2022-09-06T00:12:03.032Z,13.31
2022-09-06T00:13:08.058Z,13.97
2022-09-06T00:14:09.803Z,14.62
2022-09-06T00:15:11.830Z,15.13
2022-09-06T00:16:17.182Z,15.42
2022-09-06T00:17:19.663Z,15.29
2022-09-06T00:18:22.824Z,14.98
2022-09-06T00:19:24.690Z,14.64
2022-09-06T00:20:27.437Z,14.33
2022-09-06T00:21:31.046Z,14.06
2022-09-06T00:22:32.706Z,13.82
2022-09-06T00:23:34.491Z,13.63
2022-09-06T00:24:37.255Z,13.48
2022-09-06T00:25:38.998Z,13.33
2022-09-06T00:26:40.916Z,13.20
2022-09-06T00:27:42.612Z,13.10
2022-09-06T00:28:44.797Z,13.00
2022-09-06T00:29:46.477Z,12.91
2022-09-06T00:30:48.234Z,12.84
2022-09-06T00:31:50.001Z,12.76
2022-09-06T00:32:52.958Z,12.68
2022-09-06T00:33:54.661Z,12.61
2022-09-06T00:34:56.347Z,12.55
2022-09-06T00:36:01.293Z,12.49
2022-09-06T00:37:03.077Z,12.44
2022-09-06T00:38:04.750Z,12.40
2022-09-06T00:39:06.509Z,12.35
2022-09-06T00:40:08.961Z,12.30
2022-09-06T00:41:14.021Z,12.26
2022-09-06T00:42:15.706Z,12.24
2022-09-06T00:43:17.405Z,12.53
2022-09-06T00:44:19.594Z,13.12
2022-09-06T00:45:21.794Z,13.79
2022-09-06T00:46:28.823Z,14.44
2022-09-06T00:47:31.001Z,15.03
2022-09-06T00:48:34.705Z,15.27
2022-09-06T00:49:50.788Z,15.12
2022-09-06T00:50:57.492Z,14.73
2022-09-06T00:52:07.827Z,14.39
2022-09-06T00:53:10.367Z,14.05
2022-09-06T00:54:12.171Z,13.80
2022-09-06T00:55:14.825Z,13.59
2022-09-06T00:56:16.749Z,13.43
2022-09-06T00:57:19.013Z,13.27
2022-09-06T00:58:21.523Z,13.15
2022-09-06T00:59:27.213Z,13.04
2022-09-06T01:00:28.894Z,12.93
2022-09-06T01:01:30.872Z,12.84
2022-09-06T01:02:32.782Z,12.76
2022-09-06T01:03:37.159Z,12.68
2022-09-06T01:04:42.777Z,12.60
2022-09-06T01:05:57.000Z,12.52
2022-09-06T01:07:22.681Z,12.44
2022-09-06T01:08:48.203Z,12.36
2022-09-06T01:10:20.595Z,12.27
2022-09-06T01:11:45.523Z,12.19
2022-09-06T01:13:01.205Z,12.12
2022-09-06T01:14:11.882Z,12.16
2022-09-06T01:15:33.909Z,12.66
2022-09-06T01:17:01.783Z,13.54
2022-09-06T01:18:15.288Z,14.43
2022-09-06T01:19:44.697Z,15.00
2022-09-06T01:21:04.925Z,15.07
2022-09-06T01:22:47.772Z,14.70
2022-09-06T01:24:21.311Z,14.16
2022-09-06T01:25:42.871Z,13.76
2022-09-06T01:27:25.662Z,13.49
2022-09-06T01:28:46.004Z,13.21
2022-09-06T01:29:54.180Z,13.04
2022-09-06T01:31:11.661Z,12.92
2022-09-06T01:32:27.819Z,12.79
2022-09-06T01:33:43.431Z,12.67
2022-09-06T01:34:54.038Z,12.56
2022-09-06T01:36:03.122Z,12.47
2022-09-06T01:37:14.257Z,12.39
2022-09-06T01:38:17.152Z,12.31
2022-09-06T01:39:29.490Z,12.25
2022-09-06T01:40:34.990Z,12.18
2022-09-06T01:41:36.775Z,12.12
2022-09-06T01:42:42.290Z,12.07
2022-09-06T01:43:49.307Z,12.16
2022-09-06T01:45:12.564Z,12.67
2022-09-06T01:46:26.824Z,13.56
2022-09-06T01:47:38.565Z,14.31
2022-09-06T01:49:04.161Z,14.89
2022-09-06T01:50:28.196Z,15.04
2022-09-06T01:51:47.900Z,14.68
2022-09-06T01:53:34.442Z,14.25
2022-09-06T01:55:03.178Z,13.76
2022-09-06T01:56:20.665Z,13.43
2022-09-06T01:57:44.569Z,13.21
2022-09-06T01:59:06.050Z,13.01
2022-09-06T02:00:14.949Z,12.84
2022-09-06T02:01:42.530Z,12.71
2022-09-06T02:03:14.968Z,12.57
2022-09-06T02:04:32.032Z,12.43
2022-09-06T02:05:51.829Z,12.32
2022-09-06T02:07:06.084Z,12.21
2022-09-06T02:08:23.913Z,12.12
2022-09-06T02:09:32.435Z,12.07
2022-09-06T02:10:47.849Z,12.43
2022-09-06T02:11:55.402Z,13.19
2022-09-06T02:13:02.003Z,13.90
2022-09-06T02:14:14.732Z,14.52
2022-09-06T02:15:26.510Z,14.97
2022-09-06T02:16:33.039Z,14.90
2022-09-06T02:17:45.427Z,14.58
2022-09-06T02:18:59.067Z,14.17
2022-09-06T02:20:15.033Z,13.79
2022-09-06T02:21:25.125Z,13.46
2022-09-06T02:22:32.988Z,13.20
2022-09-06T02:23:40.389Z,13.00
2022-09-06T02:24:46.938Z,12.80
2022-09-06T02:25:55.782Z,12.64
2022-09-06T02:26:58.064Z,12.48
2022-09-06T02:27:59.897Z,12.37
2022-09-06T02:29:02.180Z,12.25
2022-09-06T02:30:06.130Z,12.15
2022-09-06T02:31:19.443Z,12.05
2022-09-06T02:32:26.684Z,11.95
2022-09-06T02:33:33.353Z,11.93
2022-09-06T02:34:38.802Z,12.31
2022-09-06T02:35:52.854Z,12.97
2022-09-06T02:36:55.302Z,13.73
2022-09-06T02:37:57.311Z,14.31
2022-09-06T02:39:02.137Z,14.76
2022-09-06T02:40:04.224Z,14.88
2022-09-06T02:41:07.951Z,14.66
2022-09-06T02:42:12.972Z,14.31
2022-09-06T02:43:14.676Z,13.93
2022-09-06T02:44:16.567Z,13.63
2022-09-06T02:45:18.400Z,13.35
2022-09-06T02:46:20.354Z,13.12
2022-09-06T02:47:22.082Z,12.93
2022-09-06T02:48:23.893Z,12.76
2022-09-06T02:49:25.697Z,12.60
2022-09-06T02:50:28.002Z,12.46
2022-09-06T02:51:29.824Z,12.34
2022-09-06T02:52:31.536Z,12.23
2022-09-06T02:53:33.809Z,12.13
2022-09-06T02:54:35.543Z,12.03
2022-09-06T02:55:38.126Z,11.94
2022-09-06T02:56:39.890Z,11.92
2022-09-06T02:57:41.565Z,12.25
2022-09-06T02:58:43.717Z,12.86
2022-09-06T02:59:46.254Z,13.51
2022-09-06T03:00:48.238Z,14.10
2022-09-06T03:01:49.971Z,14.61
2022-09-06T03:02:51.682Z,14.87
2022-09-06T03:03:53.425Z,14.75
2022-09-06T03:04:55.084Z,14.41
2022-09-06T03:05:56.870Z,14.05
2022-09-06T03:06:58.533Z,13.70
2022-09-06T03:08:00.540Z,13.39
2022-09-06T03:09:02.249Z,13.13
2022-09-06T03:10:04.520Z,12.91
2022-09-06T03:11:06.370Z,12.72
2022-09-06T03:12:08.132Z,12.55
2022-09-06T03:13:09.820Z,12.41
2022-09-06T03:14:11.587Z,12.27
2022-09-06T03:15:16.267Z,12.15
2022-09-06T03:16:20.111Z,12.04
2022-09-06T03:17:22.225Z,11.93
2022-09-06T03:18:29.825Z,11.90
2022-09-06T03:19:31.505Z,12.26
2022-09-06T03:20:37.003Z,12.86
2022-09-06T03:21:38.976Z,13.52
2022-09-06T03:22:41.558Z,14.09
2022-09-06T03:23:43.358Z,14.56
2022-09-06T03:24:45.028Z,14.74
2022-09-06T03:25:46.882Z,14.54
2022-09-06T03:26:48.648Z,14.19
2022-09-06T03:27:50.368Z,13.80
2022-09-06T03:28:52.066Z,13.47
2022-09-06T03:29:53.749Z,13.18
2022-09-06T03:30:55.641Z,12.94
2022-09-06T03:31:57.360Z,12.73
2022-09-06T03:33:02.562Z,12.55
2022-09-06T03:34:09.077Z,12.39
2022-09-06T03:35:12.600Z,12.23
2022-09-06T03:36:15.706Z,12.11
2022-09-06T03:37:19.392Z,11.99
2022-09-06T03:38:23.391Z,11.87
2022-09-06T03:39:25.419Z,11.85
2022-09-06T03:40:27.552Z,12.19
2022-09-06T03:41:29.255Z,12.79
2022-09-06T03:42:30.925Z,13.41
2022-09-06T03:43:32.929Z,13.99
2022-09-06T03:44:34.623Z,14.47
2022-09-06T03:45:36.323Z,14.71
2022-09-06T03:46:38.342Z,14.56
2022-09-06T03:47:40.272Z,14.23
2022-09-06T03:48:42.196Z,13.85
2022-09-06T03:49:45.302Z,13.51
2022-09-06T03:50:49.530Z,13.21
2022-09-06T03:51:52.299Z,12.94
2022-09-06T03:52:53.976Z,12.71
2022-09-06T03:53:55.804Z,12.52
2022-09-06T03:54:57.967Z,12.36
2022-09-06T03:55:59.792Z,12.20
2022-09-06T03:57:01.652Z,12.07
2022-09-06T03:58:03.363Z,11.94
2022-09-06T03:59:05.195Z,11.82
2022-09-06T04:00:07.583Z,11.75
2022-09-06T04:01:13.390Z,11.99
2022-09-06T04:02:15.870Z,12.56
2022-09-06T04:03:20.187Z,13.19
2022-09-06T04:04:22.012Z,13.79
2022-09-06T04:05:23.720Z,14.31
2022-09-06T04:06:25.431Z,14.68
2022-09-06T04:07:27.138Z,14.72
2022-09-06T04:08:29.841Z,14.44
2022-09-06T04:09:31.637Z,14.06
2022-09-06T04:10:33.891Z,13.68
2022-09-06T04:11:35.723Z,13.34
2022-09-06T04:12:37.438Z,13.05
2022-09-06T04:13:39.171Z,12.81
2022-09-06T04:14:40.967Z,12.59
2022-09-06T04:15:46.759Z,12.40
2022-09-06T04:16:50.029Z,12.23
2022-09-06T04:17:51.749Z,12.07
2022-09-06T04:18:53.532Z,11.94
2022-09-06T04:19:55.301Z,11.81
2022-09-06T04:20:57.652Z,11.75
2022-09-06T04:21:59.377Z,12.02
2022-09-06T04:23:01.132Z,12.58
2022-09-06T04:24:03.023Z,13.21
2022-09-06T04:25:05.767Z,13.79
2022-09-06T04:26:07.751Z,14.31
2022-09-06T04:27:09.472Z,14.66
2022-09-06T04:28:11.135Z,14.62
2022-09-06T04:29:12.980Z,14.32
2022-09-06T04:30:14.837Z,13.94
2022-09-06T04:31:16.534Z,13.58
2022-09-06T04:32:18.188Z,13.26
2022-09-06T04:33:20.749Z,12.99
2022-09-06T04:34:22.425Z,12.75
2022-09-06T04:35:24.293Z,12.56
2022-09-06T04:36:25.993Z,12.38
2022-09-06T04:37:27.705Z,12.23
2022-09-06T04:38:34.427Z,12.08
2022-09-06T04:39:36.194Z,11.94
2022-09-06T04:40:38.151Z,11.91
2022-09-06T04:41:40.195Z,12.22
2022-09-06T04:42:41.889Z,12.79
2022-09-06T04:43:43.574Z,13.41
2022-09-06T04:44:45.236Z,13.99
2022-09-06T04:45:47.556Z,14.49
2022-09-06T04:46:49.320Z,14.76
2022-09-06T04:47:51.541Z,14.65
2022-09-06T04:48:55.430Z,14.33
2022-09-06T04:49:57.292Z,13.95
2022-09-06T04:50:59.078Z,13.62
2022-09-06T04:52:00.763Z,13.34
2022-09-06T04:53:02.525Z,13.10
2022-09-06T04:54:04.206Z,12.89
2022-09-06T04:55:06.500Z,12.71
2022-09-06T04:56:16.053Z,12.55
2022-09-06T04:57:17.716Z,12.40
2022-09-06T04:58:19.427Z,12.28
2022-09-06T04:59:21.131Z,12.16
2022-09-06T05:00:22.841Z,12.07
2022-09-06T05:01:26.340Z,12.01
2022-09-06T05:02:28.301Z,12.28
2022-09-06T05:03:29.986Z,12.84
2022-09-06T05:04:31.790Z,13.50
2022-09-06T05:05:33.491Z,14.10
2022-09-06T05:06:35.469Z,14.63
2022-09-06T05:07:37.228Z,14.96
2022-09-06T05:08:41.026Z,14.91
2022-09-06T05:09:42.724Z,14.61
2022-09-06T05:10:44.465Z,14.25
2022-09-06T05:11:46.457Z,13.93
2022-09-06T05:12:50.253Z,13.65
2022-09-06T05:13:51.963Z,13.40
2022-09-06T05:14:53.719Z,13.21
2022-09-06T05:15:55.813Z,13.03
2022-09-06T05:16:57.685Z,12.88
2022-09-06T05:18:06.768Z,12.75
2022-09-06T05:19:08.459Z,12.62
2022-09-06T05:20:11.058Z,12.52
2022-09-06T05:21:12.820Z,12.44
2022-09-06T05:22:14.694Z,12.36
2022-09-06T05:23:16.350Z,12.29
2022-09-06T05:24:18.120Z,12.25
2022-09-06T05:25:19.845Z,12.46
2022-09-06T05:26:21.526Z,13.01
2022-09-06T05:27:23.341Z,13.68
2022-09-06T05:28:25.151Z,14.33
2022-09-06T05:29:30.486Z,14.89
2022-09-06T05:30:32.413Z,15.30
2022-09-06T05:31:35.409Z,15.29
2022-09-06T05:32:37.208Z,15.01
2022-09-06T05:33:39.203Z,14.68
2022-09-06T05:34:40.920Z,14.37
2022-09-06T05:35:42.572Z,14.10
2022-09-06T05:36:45.444Z,13.87
2022-09-06T05:37:47.191Z,13.68
2022-09-06T05:38:50.754Z,13.53
2022-09-06T05:39:52.614Z,13.38
2022-09-06T05:40:54.362Z,13.26
2022-09-06T05:41:56.106Z,13.15
2022-09-06T05:42:57.894Z,13.04
2022-09-06T05:44:00.234Z,12.96
2022-09-06T05:45:02.356Z,12.88
2022-09-06T05:46:04.204Z,12.83
2022-09-06T05:47:06.177Z,12.77
2022-09-06T05:48:08.649Z,12.71
2022-09-06T05:49:10.488Z,12.67
2022-09-06T05:50:12.509Z,12.80
2022-09-06T05:51:14.170Z,13.29
2022-09-06T05:52:17.290Z,13.96
2022-09-06T05:53:18.977Z,14.65
2022-09-06T05:54:21.049Z,15.26
2022-09-06T05:55:22.893Z,15.69
2022-09-06T05:56:24.822Z,15.74
2022-09-06T05:57:26.893Z,15.50
2022-09-06T05:58:28.684Z,15.18
2022-09-06T05:59:30.746Z,14.88
2022-09-06T06:00:32.452Z,14.62
2022-09-06T06:01:34.189Z,14.40
2022-09-06T06:02:35.985Z,14.23
2022-09-06T06:03:38.918Z,14.08
2022-09-06T06:04:40.746Z,13.95
2022-09-06T06:05:47.668Z,13.84
2022-09-06T06:06:49.571Z,13.75
2022-09-06T06:07:51.249Z,13.67
2022-09-06T06:08:53.652Z,13.60
2022-09-06T06:09:55.414Z,13.53
2022-09-06T06:11:01.894Z,13.48
2022-09-06T06:12:04.897Z,13.44
2022-09-06T06:13:06.575Z,13.40
2022-09-06T06:14:09.030Z,13.36
2022-09-06T06:15:11.233Z,13.34
2022-09-06T06:16:15.939Z,13.32
2022-09-06T06:17:17.700Z,13.31
2022-09-06T06:18:19.542Z,13.30
2022-09-06T06:19:21.317Z,13.35
2022-09-06T06:20:23.133Z,13.70
2022-09-06T06:21:25.866Z,14.36
2022-09-06T06:22:27.871Z,15.05
2022-09-06T06:23:29.566Z,15.68
2022-09-06T06:24:31.380Z,16.15
2022-09-06T06:25:33.153Z,16.25
2022-09-06T06:26:36.573Z,16.07
2022-09-06T06:27:38.294Z,15.80
2022-09-06T06:28:40.964Z,15.55
2022-09-06T06:29:42.649Z,15.32
2022-09-06T06:30:44.458Z,15.14
2022-09-06T06:31:46.295Z,14.98
2022-09-06T06:32:48.053Z,14.85
2022-09-06T06:33:50.728Z,14.75
2022-09-06T06:34:52.446Z,14.67
2022-09-06T06:36:02.631Z,14.60
2022-09-06T06:37:04.345Z,14.54
2022-09-06T06:38:06.041Z,14.48
2022-09-06T06:39:09.157Z,14.44
2022-09-06T06:40:11.025Z,14.40
2022-09-06T06:41:16.503Z,14.37
2022-09-06T06:42:18.173Z,14.35
2022-09-06T06:43:27.306Z,14.33
2022-09-06T06:44:29.456Z,14.32
2022-09-06T06:45:31.572Z,14.31
2022-09-06T06:46:36.368Z,14.30
2022-09-06T06:47:38.052Z,14.30
2022-09-06T06:48:41.354Z,14.30
2022-09-06T06:49:43.043Z,14.30
2022-09-06T06:50:44.856Z,14.30
2022-09-06T06:51:47.538Z,14.30
2022-09-06T06:52:49.346Z,14.30
2022-09-06T06:53:51.582Z,14.31
2022-09-06T06:54:53.229Z,14.32
2022-09-06T06:55:55.380Z,14.34
2022-09-06T06:56:57.028Z,14.34
2022-09-06T06:58:02.438Z,14.34
2022-09-06T06:59:06.983Z,14.35
2022-09-06T07:00:10.949Z,14.37
2022-09-06T07:01:13.899Z,14.38
2022-09-06T07:02:17.575Z,14.40
2022-09-06T07:03:19.390Z,14.40
2022-09-06T07:04:21.414Z,14.43
2022-09-06T07:08:13.150Z,14.52
2022-09-06T07:09:15.873Z,14.56
2022-09-06T07:10:33.518Z,14.60
2022-09-06T07:11:35.660Z,14.63
2022-09-06T07:12:37.349Z,14.67
2022-09-06T07:13:39.430Z,14.70
2022-09-06T07:14:41.131Z,14.73
2022-09-06T07:15:42.791Z,14.76
2022-09-06T07:16:45.547Z,14.79
2022-09-06T07:17:47.231Z,14.82
2022-09-06T07:18:53.680Z,14.87
2022-09-06T07:22:40.217Z,15.00
2022-09-06T07:25:06.248Z,15.05
2022-09-06T07:26:14.490Z,15.08
2022-09-06T07:28:37.899Z,15.14
2022-09-06T07:29:39.544Z,15.16
2022-09-06T07:30:42.164Z,15.19
2022-09-06T07:33:06.294Z,15.28
2022-09-06T07:34:07.971Z,15.33
2022-09-06T07:35:09.870Z,15.36
2022-09-06T07:36:11.570Z,15.39
2022-09-06T07:37:13.382Z,15.43
2022-09-06T07:38:15.081Z,15.47
2022-09-06T07:39:16.758Z,15.51
2022-09-06T07:40:18.473Z,15.56
2022-09-06T07:41:20.265Z,15.61
2022-09-06T07:42:22.122Z,15.65
2022-09-06T07:43:25.391Z,15.70
2022-09-06T07:44:28.806Z,15.76
2022-09-06T07:45:30.472Z,15.82
2022-09-06T07:46:32.212Z,15.87
2022-09-06T07:48:55.713Z,15.98
2022-09-06T07:51:21.561Z,16.07
2022-09-06T07:53:57.932Z,16.20
2022-09-06T07:55:04.591Z,16.25
2022-09-06T07:56:08.573Z,16.31
2022-09-06T07:57:12.092Z,16.37
2022-09-06T07:58:14.083Z,16.43
2022-09-06T07:59:15.987Z,16.49
2022-09-06T08:00:19.721Z,16.54
2022-09-06T08:01:34.377Z,16.60
2022-09-06T08:02:36.060Z,16.66
2022-09-06T08:03:37.754Z,16.72
2022-09-06T08:04:41.046Z,16.76
2022-09-06T08:09:47.964Z,17.01
2022-09-06T08:10:51.241Z,17.06
2022-09-06T08:11:53.024Z,17.11
2022-09-06T08:12:57.601Z,17.15
2022-09-06T08:14:01.398Z,17.20
2022-09-06T08:15:03.322Z,17.25
2022-09-06T08:16:08.026Z,17.30
2022-09-06T08:17:09.761Z,17.34
2022-09-06T08:18:12.010Z,17.40
2022-09-06T08:19:13.817Z,17.45
2022-09-06T08:20:16.794Z,17.50
2022-09-06T08:21:19.547Z,17.55
2022-09-06T08:22:21.363Z,17.59
2022-09-06T08:23:23.279Z,17.64
2022-09-06T08:24:25.007Z,17.69
2022-09-06T08:25:26.832Z,17.74
2022-09-06T08:26:30.756Z,17.81
2022-09-06T08:27:32.374Z,17.86
2022-09-06T08:28:34.186Z,17.91
2022-09-06T08:29:35.920Z,17.95
2022-09-06T08:30:37.710Z,18.00
2022-09-06T08:31:44.414Z,18.05
2022-09-06T08:32:46.124Z,18.08
2022-09-06T08:33:47.779Z,18.12
2022-09-06T08:34:49.717Z,18.16
2022-09-06T08:35:56.256Z,18.19
2022-09-06T08:36:57.949Z,18.23
2022-09-06T08:37:59.627Z,18.27
2022-09-06T08:39:04.890Z,18.31
2022-09-06T08:40:07.172Z,18.35
2022-09-06T08:41:14.567Z,18.39
2022-09-06T08:42:16.305Z,18.45
2022-09-06T08:43:21.090Z,18.49
2022-09-06T08:45:56.470Z,18.56
2022-09-06T08:47:02.366Z,18.60
2022-09-06T08:48:04.177Z,18.65
2022-09-06T08:49:07.031Z,18.70
2022-09-06T08:50:10.586Z,18.76
2022-09-06T08:51:58.039Z,18.80
2022-09-06T08:53:17.623Z,18.88
2022-09-06T08:54:35.691Z,18.95
2022-09-06T08:55:48.107Z,19.02
2022-09-06T08:57:13.513Z,19.07
2022-09-06T08:58:36.658Z,19.14
2022-09-06T08:59:40.878Z,19.19
2022-09-06T09:00:52.311Z,19.23
2022-09-06T09:02:04.584Z,19.28
2022-09-06T09:03:16.819Z,19.34
2022-09-06T09:04:24.459Z,19.40
2022-09-06T09:05:33.040Z,19.47
2022-09-06T09:06:35.808Z,19.51
2022-09-06T09:07:50.338Z,19.56
2022-09-06T09:09:06.028Z,19.60
2022-09-06T09:10:32.580Z,19.65
2022-09-06T09:11:36.245Z,19.72
2022-09-06T09:12:46.637Z,19.78
2022-09-06T09:13:55.629Z,19.82
2022-09-06T09:15:06.435Z,19.88
2022-09-06T09:16:08.364Z,19.93
2022-09-06T09:17:20.351Z,19.97
2022-09-06T09:18:28.047Z,20.01
2022-09-06T09:19:33.437Z,20.04
2022-09-06T09:20:35.158Z,20.08
2022-09-06T09:21:40.160Z,20.11
2022-09-06T09:22:42.161Z,20.15
2022-09-06T09:23:54.894Z,20.19
2022-09-06T09:25:00.009Z,20.23
2022-09-06T09:26:10.370Z,20.25
2022-09-06T09:27:16.774Z,20.30
2022-09-06T09:28:24.597Z,20.33
2022-09-06T09:29:29.476Z,20.36
2022-09-06T09:30:49.969Z,20.41
2022-09-06T09:31:56.075Z,20.44
2022-09-06T09:32:57.852Z,20.47
2022-09-06T09:34:02.411Z,20.49
2022-09-06T09:35:19.220Z,20.50
2022-09-06T09:36:21.804Z,20.51
2022-09-06T09:38:52.875Z,20.54
2022-09-06T09:39:58.240Z,20.55
2022-09-06T09:41:05.399Z,20.57
2022-09-06T09:42:08.286Z,20.57
2022-09-06T09:43:26.504Z,20.58
2022-09-06T09:44:29.940Z,20.58
2022-09-06T09:45:31.852Z,20.59
2022-09-06T09:46:39.702Z,20.63
2022-09-06T09:47:41.466Z,20.67
2022-09-06T09:49:04.674Z,20.71
2022-09-06T09:50:22.521Z,20.75
2022-09-06T09:51:27.715Z,20.78
2022-09-06T09:52:32.023Z,20.79
2022-09-06T09:53:33.749Z,20.82
2022-09-06T09:54:38.693Z,20.85
2022-09-06T09:55:41.916Z,20.87
2022-09-06T09:56:54.606Z,20.90
2022-09-06T09:57:56.664Z,20.89
2022-09-06T09:59:00.558Z,20.87
2022-09-06T10:00:02.694Z,20.86
2022-09-06T10:01:35.697Z,20.86
2022-09-06T10:02:40.217Z,20.88
2022-09-06T10:05:17.889Z,20.92
2022-09-06T10:07:53.698Z,20.97
2022-09-06T10:08:55.740Z,20.99
2022-09-06T10:10:00.992Z,21.00
2022-09-06T10:11:02.708Z,21.01
2022-09-06T10:12:05.067Z,21.02
2022-09-06T10:13:09.316Z,21.01
2022-09-06T10:14:13.599Z,21.02
2022-09-06T10:15:40.050Z,21.03
2022-09-06T10:16:45.456Z,21.06
2022-09-06T10:17:47.140Z,21.08
2022-09-06T10:18:52.710Z,21.10
2022-09-06T10:19:54.833Z,21.12
2022-09-06T10:21:02.332Z,21.14
2022-09-06T10:22:20.689Z,21.19
2022-09-06T10:25:00.926Z,21.29
2022-09-06T10:26:10.011Z,21.31
2022-09-06T10:27:12.620Z,21.33
2022-09-06T10:28:33.426Z,21.37
2022-09-06T10:29:48.021Z,21.41
2022-09-06T10:31:07.920Z,21.46
2022-09-06T10:32:32.662Z,21.52
2022-09-06T10:34:10.552Z,21.57
2022-09-06T10:35:30.059Z,21.62
2022-09-06T10:37:00.355Z,21.64
2022-09-06T10:38:19.561Z,21.66
2022-09-06T10:39:50.376Z,21.70
2022-09-06T10:40:58.961Z,21.74
2022-09-06T10:42:15.780Z,21.77
2022-09-06T10:43:21.011Z,21.81
2022-09-06T10:44:49.029Z,21.85
2022-09-06T10:46:09.399Z,21.90
2022-09-06T10:47:16.183Z,21.97
2022-09-06T10:48:24.002Z,22.03
2022-09-06T10:49:28.521Z,22.09
2022-09-06T10:50:54.285Z,22.15
2022-09-06T10:52:03.594Z,22.25
2022-09-06T10:53:33.643Z,22.33
2022-09-06T10:54:40.980Z,22.43
2022-09-06T10:55:50.745Z,22.49
2022-09-06T11:00:14.444Z,22.66
2022-09-06T11:01:28.496Z,22.69
2022-09-06T11:04:29.690Z,22.77
2022-09-06T11:05:41.182Z,22.83
2022-09-06T11:06:47.686Z,22.87
2022-09-06T11:09:38.475Z,22.97
2022-09-06T11:10:48.131Z,23.02
2022-09-06T11:12:33.017Z,23.07
2022-09-06T11:13:35.007Z,23.16
2022-09-06T11:14:39.264Z,23.20
2022-09-06T11:16:10.730Z,23.25
2022-09-06T11:17:28.670Z,23.33
2022-09-06T11:18:44.459Z,23.40
2022-09-06T11:20:05.895Z,23.48
2022-09-06T11:21:19.761Z,23.55
2022-09-06T11:22:30.437Z,23.61
2022-09-06T11:23:44.741Z,23.65
2022-09-06T11:25:22.624Z,23.69
2022-09-06T11:26:26.830Z,23.76
2022-09-06T11:27:40.350Z,23.84
2022-09-06T11:29:13.567Z,23.93
2022-09-06T11:30:18.117Z,24.05
2022-09-06T11:33:11.895Z,24.28
2022-09-06T11:34:30.471Z,24.39
2022-09-06T11:35:34.839Z,24.50
2022-09-06T11:36:52.830Z,24.56
2022-09-06T11:38:02.683Z,24.60
2022-09-06T11:39:08.831Z,24.61
2022-09-06T11:40:27.378Z,24.66
2022-09-06T11:41:38.490Z,24.72
2022-09-06T11:42:46.223Z,24.78
2022-09-06T11:43:51.647Z,24.85
2022-09-06T11:45:21.189Z,24.92
2022-09-06T11:46:43.096Z,25.00
2022-09-06T11:47:53.083Z,25.06
2022-09-06T11:49:04.781Z,25.10
2022-09-06T11:50:24.330Z,25.14
2022-09-06T11:51:34.382Z,25.19
2022-09-06T11:53:07.041Z,25.26
2022-09-06T11:54:14.963Z,25.38
2022-09-06T11:55:22.906Z,25.49
2022-09-06T11:56:57.089Z,25.59
2022-09-06T11:58:03.308Z,25.73
2022-09-06T11:59:17.661Z,25.80
2022-09-06T12:00:23.873Z,25.88
2022-09-06T12:01:25.466Z,25.94
2022-09-06T12:02:35.592Z,26.00
2022-09-06T12:04:06.515Z,26.07
2022-09-06T12:05:16.689Z,26.17
2022-09-06T12:06:32.217Z,26.25
2022-09-06T12:07:36.857Z,26.35
2022-09-06T12:08:38.722Z,26.44
2022-09-06T12:09:43.894Z,26.51
2022-09-06T12:10:57.297Z,26.58
2022-09-06T12:12:01.271Z,26.63
2022-09-06T12:13:41.280Z,26.67
2022-09-06T12:14:48.179Z,26.76
2022-09-06T12:15:55.448Z,26.83
2022-09-06T12:17:04.783Z,26.89
2022-09-06T12:18:06.557Z,26.97
2022-09-06T12:19:08.337Z,27.02
2022-09-06T12:20:11.236Z,27.06
2022-09-06T12:21:39.346Z,27.10
2022-09-06T12:22:46.739Z,27.18
2022-09-06T12:23:48.719Z,27.24
2022-09-06T12:24:53.866Z,27.30
2022-09-06T12:25:56.970Z,27.36
2022-09-06T12:27:31.881Z,27.43
2022-09-06T12:28:34.976Z,27.56
2022-09-06T12:29:37.050Z,27.61
2022-09-06T12:30:48.078Z,27.60
2022-09-06T12:31:56.913Z,27.54
2022-09-06T12:33:02.372Z,27.44
2022-09-06T12:34:21.271Z,27.32
2022-09-06T12:36:55.617Z,26.99
2022-09-06T12:38:03.673Z,26.96
2022-09-06T12:39:12.085Z,26.95
2022-09-06T12:40:14.333Z,26.98
2022-09-06T12:41:16.191Z,27.01
2022-09-06T12:42:19.383Z,27.00
2022-09-06T12:43:21.929Z,26.95
2022-09-06T12:44:31.709Z,26.94
2022-09-06T12:45:33.561Z,26.98
2022-09-06T12:46:36.940Z,27.02
2022-09-06T12:47:42.306Z,27.10
2022-09-06T12:49:00.422Z,27.20
2022-09-06T12:50:17.983Z,27.36
2022-09-06T12:51:20.848Z,27.51
2022-09-06T12:52:22.503Z,27.63
2022-09-06T12:53:25.414Z,27.73
2022-09-06T12:54:28.864Z,27.83
2022-09-06T12:55:37.027Z,27.91
2022-09-06T12:56:38.787Z,27.97
2022-09-06T12:57:48.528Z,27.99
2022-09-06T12:58:51.353Z,27.98
2022-09-06T12:59:57.023Z,27.97
2022-09-06T13:01:08.498Z,27.98
2022-09-06T13:02:20.610Z,27.97
2022-09-06T13:03:50.606Z,27.90
2022-09-06T13:05:01.455Z,27.76
2022-09-06T13:06:06.349Z,27.70
2022-09-06T13:07:14.681Z,27.66
2022-09-06T13:08:29.552Z,27.63
2022-09-06T13:09:33.335Z,27.64
2022-09-06T13:10:39.879Z,27.65
2022-09-06T13:11:51.493Z,27.67
2022-09-06T13:12:57.049Z,27.72
2022-09-06T13:13:59.307Z,27.81
2022-09-06T13:15:11.857Z,27.92
2022-09-06T13:16:20.316Z,28.04
2022-09-06T13:17:28.675Z,28.13
2022-09-06T13:18:39.621Z,28.23
2022-09-06T13:19:42.575Z,28.33
2022-09-06T13:20:44.285Z,28.43
2022-09-06T13:21:47.264Z,28.53
2022-09-06T13:22:51.332Z,28.63
2022-09-06T13:23:53.521Z,28.75
2022-09-06T13:24:56.310Z,28.87
2022-09-06T13:25:58.305Z,28.96
2022-09-06T13:27:00.136Z,29.05
2022-09-06T13:28:03.241Z,29.13
2022-09-06T13:29:16.766Z,29.20
2022-09-06T13:30:39.957Z,29.29
2022-09-06T13:31:46.756Z,29.40
2022-09-06T13:32:48.536Z,29.47
2022-09-06T13:33:59.942Z,29.51
2022-09-06T13:35:03.772Z,29.61
2022-09-06T13:36:11.610Z,29.71
2022-09-06T13:37:14.106Z,29.83
2022-09-06T13:38:31.098Z,29.96
2022-09-06T13:39:41.983Z,30.06
2022-09-06T13:41:09.597Z,30.13
2022-09-06T13:42:27.514Z,30.14
2022-09-06T13:43:29.387Z,30.13
2022-09-06T13:44:34.733Z,30.14
2022-09-06T13:45:36.702Z,30.13
2022-09-06T13:46:38.487Z,30.14
2022-09-06T13:47:40.213Z,30.17
2022-09-06T13:48:44.536Z,30.19
2022-09-06T13:49:47.236Z,30.24
2022-09-06T13:50:48.984Z,30.31
2022-09-06T13:51:53.468Z,30.38
2022-09-06T13:52:55.259Z,30.46
2022-09-06T13:54:09.125Z,30.51
2022-09-06T13:55:16.610Z,30.57
2022-09-06T13:56:18.298Z,30.63
2022-09-06T13:57:24.211Z,30.70
2022-09-06T13:58:27.792Z,30.77
2022-09-06T13:59:31.486Z,30.80
2022-09-06T14:00:33.404Z,30.82
2022-09-06T14:01:35.492Z,30.83
2022-09-06T14:02:37.919Z,30.83
2022-09-06T14:03:42.182Z,30.80
2022-09-06T14:04:43.886Z,30.71
2022-09-06T14:05:45.542Z,30.61
2022-09-06T14:06:48.870Z,30.50
2022-09-06T14:07:50.549Z,30.39
2022-09-06T14:09:08.459Z,30.29
2022-09-06T14:10:11.620Z,30.21
2022-09-06T14:11:16.738Z,30.15
2022-09-06T14:12:18.371Z,30.11
2022-09-06T14:13:21.096Z,30.09
2022-09-06T14:14:22.929Z,30.09
2022-09-06T14:15:25.130Z,30.07
2022-09-06T14:16:27.062Z,30.08
2022-09-06T14:17:28.830Z,30.10
2022-09-06T14:18:31.327Z,30.15
2022-09-06T14:19:33.067Z,30.22
2022-09-06T14:20:34.876Z,30.28
2022-09-06T14:21:36.598Z,30.32
2022-09-06T14:22:38.489Z,30.33
2022-09-06T14:23:40.357Z,30.36
2022-09-06T14:24:41.995Z,30.40
2022-09-06T14:25:43.657Z,30.44
2022-09-06T14:26:45.306Z,30.48
2022-09-06T14:27:48.861Z,30.48
2022-09-06T14:28:51.369Z,30.46
2022-09-06T14:29:53.087Z,30.43
2022-09-06T14:30:55.078Z,30.35
2022-09-06T14:31:56.859Z,30.24
2022-09-06T14:32:59.729Z,30.12
2022-09-06T14:34:02.695Z,29.96
2022-09-06T14:35:05.829Z,29.82
2022-09-06T14:36:10.490Z,29.70
2022-09-06T14:37:13.665Z,29.61
2022-09-06T14:38:15.946Z,29.54
2022-09-06T14:39:17.813Z,29.48
2022-09-06T14:40:19.545Z,29.42
2022-09-06T14:41:21.261Z,29.39
2022-09-06T14:42:24.607Z,29.35
2022-09-06T14:43:26.297Z,29.29
2022-09-06T14:44:28.277Z,29.21
2022-09-06T14:45:29.942Z,29.12
2022-09-06T14:46:31.909Z,29.05
2022-09-06T14:47:33.671Z,28.98
2022-09-06T14:48:40.338Z,28.89
2022-09-06T14:49:43.759Z,28.78
2022-09-06T14:50:45.388Z,28.66